sensor_id;sensor_type;location;lat;lon;timestamp;pressure;altitude;pressure_sealevel;temperature;humidity
75631;BME280;64215;51.040;6.690;2022-10-16T07:15:29;100795.75;;;24.35;48.08
75631;BME280;64215;51.040;6.690;2022-10-16T07:17:55;100796.69;;;23.83;49.11
75631;BME280;64215;51.040;6.690;2022-10-16T07:21:19;100764.22;;;23.10;50.77
75631;BME280;64215;51.040;6.690;2022-10-16T07:23:52;100770.09;;;22.59;52.09
75631;BME280;64215;51.040;6.690;2022-10-16T07:26:18;100773.03;;;22.28;53.16
75631;BME280;64215;51.040;6.690;2022-10-16T07:28:44;100779.94;;;22.10;54.03
75631;BME280;64215;51.040;6.690;2022-10-16T07:31:12;100770.19;;;21.94;54.02
75631;BME280;64215;51.040;6.690;2022-10-16T07:33:40;100775.44;;;21.80;54.26
75631;BME280;64215;51.040;6.690;2022-10-16T07:36:07;100780.91;;;21.70;54.63
75631;BME280;64215;51.040;6.690;2022-10-16T07:38:34;100779.31;;;21.64;54.89
75631;BME280;64215;51.040;6.690;2022-10-16T07:41:02;100790.75;;;21.56;54.83
75631;BME280;64215;51.040;6.690;2022-10-16T07:43:28;100786.44;;;21.50;54.96
75631;BME280;64215;51.040;6.690;2022-10-16T07:45:54;100794.31;;;21.46;55.61
75631;BME280;64215;51.040;6.690;2022-10-16T07:48:21;100796.16;;;21.66;55.40
75631;BME280;64215;51.040;6.690;2022-10-16T07:50:46;100806.59;;;22.13;53.77
75631;BME280;64215;51.040;6.690;2022-10-16T07:53:12;100807.22;;;22.50;53.03
75631;BME280;64215;51.040;6.690;2022-10-16T07:55:38;100812.16;;;22.77;52.52
75631;BME280;64215;51.040;6.690;2022-10-16T07:58:04;100812.78;;;23.03;51.14
75631;BME280;64215;51.040;6.690;2022-10-16T08:00:30;100814.25;;;23.24;50.45
75631;BME280;64215;51.040;6.690;2022-10-16T08:02:57;100817.34;;;23.41;49.83
75631;BME280;64215;51.040;6.690;2022-10-16T08:05:27;100815.53;;;23.55;49.60
75631;BME280;64215;51.040;6.690;2022-10-16T08:07:53;100822.03;;;23.65;49.20
75631;BME280;64215;51.040;6.690;2022-10-16T08:10:20;100831.53;;;23.67;48.84
75631;BME280;64215;51.040;6.690;2022-10-16T08:12:45;100829.28;;;23.74;49.01
75631;BME280;64215;51.040;6.690;2022-10-16T08:15:13;100836.53;;;23.84;48.26
75631;BME280;64215;51.040;6.690;2022-10-16T08:17:39;100834.47;;;23.95;48.45
75631;BME280;64215;51.040;6.690;2022-10-16T08:20:04;100838.19;;;24.04;47.89
75631;BME280;64215;51.040;6.690;2022-10-16T08:22:30;100833.19;;;24.11;47.63
75631;BME280;64215;51.040;6.690;2022-10-16T08:24:55;100834.75;;;24.17;47.35
75631;BME280;64215;51.040;6.690;2022-10-16T08:27:21;100848.06;;;24.24;47.21
75631;BME280;64215;51.040;6.690;2022-10-16T08:29:48;100846.66;;;24.26;47.24
75631;BME280;64215;51.040;6.690;2022-10-16T08:32:14;100853.94;;;24.31;47.21
75631;BME280;64215;51.040;6.690;2022-10-16T08:34:41;100869.78;;;24.34;46.95
75631;BME280;64215;51.040;6.690;2022-10-16T08:37:06;100866.47;;;24.37;47.00
75631;BME280;64215;51.040;6.690;2022-10-16T08:39:36;100866.97;;;24.39;46.38
75631;BME280;64215;51.040;6.690;2022-10-16T08:50:12;100883.81;;;24.46;46.65
75631;BME280;64215;51.040;6.690;2022-10-16T08:52:40;100883.75;;;24.51;46.48
75631;BME280;64215;51.040;6.690;2022-10-16T08:55:19;100881.53;;;24.53;46.70
75631;BME280;64215;51.040;6.690;2022-10-16T08:57:50;100882.34;;;24.54;46.61
75631;BME280;64215;51.040;6.690;2022-10-16T09:00:16;100890.75;;;24.57;46.95
75631;BME280;64215;51.040;6.690;2022-10-16T09:02:53;100895.13;;;24.58;46.76
75631;BME280;64215;51.040;6.690;2022-10-16T09:16:43;100883.31;;;24.63;46.83
75631;BME280;64215;51.040;6.690;2022-10-16T09:19:33;100887.38;;;24.65;46.64
75631;BME280;64215;51.040;6.690;2022-10-16T09:22:12;100883.81;;;24.65;46.70
75631;BME280;64215;51.040;6.690;2022-10-16T09:24:39;100892.31;;;24.63;46.68
75631;BME280;64215;51.040;6.690;2022-10-16T09:27:04;100895.88;;;24.64;46.79
75631;BME280;64215;51.040;6.690;2022-10-16T09:29:30;100897.50;;;24.65;46.70
75631;BME280;64215;51.040;6.690;2022-10-16T09:31:57;100908.41;;;24.65;46.65
75631;BME280;64215;51.040;6.690;2022-10-16T09:34:33;100903.25;;;24.63;46.82
75631;BME280;64215;51.040;6.690;2022-10-16T09:37:01;100900.53;;;24.63;46.80
75631;BME280;64215;51.040;6.690;2022-10-16T09:39:28;100907.91;;;24.63;46.81
75631;BME280;64215;51.040;6.690;2022-10-16T09:41:55;100913.69;;;24.61;46.85
75631;BME280;64215;51.040;6.690;2022-10-16T09:44:28;100916.72;;;24.60;46.75
75631;BME280;64215;51.040;6.690;2022-10-16T09:47:17;100914.25;;;24.58;46.74
75631;BME280;64215;51.040;6.690;2022-10-16T09:49:58;100911.00;;;24.56;46.93
75631;BME280;64215;51.040;6.690;2022-10-16T09:52:26;100918.97;;;24.53;47.04
75631;BME280;64215;51.040;6.690;2022-10-16T09:54:57;100921.19;;;24.51;46.83
75631;BME280;64215;51.040;6.690;2022-10-16T09:57:23;100926.13;;;24.49;47.08
75631;BME280;64215;51.040;6.690;2022-10-16T09:59:53;100927.47;;;24.51;47.05
75631;BME280;64215;51.040;6.690;2022-10-16T10:02:27;100924.19;;;24.49;47.11
75631;BME280;64215;51.040;6.690;2022-10-16T10:04:54;100914.00;;;24.36;47.18
75631;BME280;64215;51.040;6.690;2022-10-16T10:07:28;100912.69;;;24.33;47.39
75631;BME280;64215;51.040;6.690;2022-10-16T10:09:59;100916.22;;;24.34;47.56
75631;BME280;64215;51.040;6.690;2022-10-16T10:12:26;100913.66;;;24.19;47.79
75631;BME280;64215;51.040;6.690;2022-10-16T10:14:56;100915.84;;;24.17;47.93
75631;BME280;64215;51.040;6.690;2022-10-16T10:17:24;100907.03;;;24.25;47.83
75631;BME280;64215;51.040;6.690;2022-10-16T10:25:15;100905.03;;;24.54;47.93
75631;BME280;64215;51.040;6.690;2022-10-16T10:28:06;100914.69;;;24.47;48.06
75631;BME280;64215;51.040;6.690;2022-10-16T10:33:23;100912.69;;;24.33;48.17
75631;BME280;64215;51.040;6.690;2022-10-16T10:46:41;100923.34;;;24.30;48.60
75631;BME280;64215;51.040;6.690;2022-10-16T10:51:49;100916.03;;;24.25;48.58
75631;BME280;64215;51.040;6.690;2022-10-16T10:54:38;100921.03;;;24.18;48.52
75631;BME280;64215;51.040;6.690;2022-10-16T10:57:22;100917.47;;;24.18;48.70
75631;BME280;64215;51.040;6.690;2022-10-16T11:02:41;100925.16;;;24.16;49.19
75631;BME280;64215;51.040;6.690;2022-10-16T11:05:21;100927.00;;;24.20;49.20
75631;BME280;64215;51.040;6.690;2022-10-16T11:08:00;100926.69;;;24.22;49.12
75631;BME280;64215;51.040;6.690;2022-10-16T11:10:30;100924.22;;;24.25;49.34
75631;BME280;64215;51.040;6.690;2022-10-16T11:13:32;100920.38;;;24.26;49.24
75631;BME280;64215;51.040;6.690;2022-10-16T11:16:40;100932.41;;;24.25;48.99
75631;BME280;64215;51.040;6.690;2022-10-16T11:19:39;100932.97;;;24.22;48.88
75631;BME280;64215;51.040;6.690;2022-10-16T11:30:22;100941.84;;;24.14;49.18
75631;BME280;64215;51.040;6.690;2022-10-16T11:36:01;100952.00;;;24.08;49.16
75631;BME280;64215;51.040;6.690;2022-10-16T11:38:38;100954.50;;;24.05;49.18
75631;BME280;64215;51.040;6.690;2022-10-16T11:42:04;100942.22;;;24.02;49.13
75631;BME280;64215;51.040;6.690;2022-10-16T11:49:26;100944.78;;;23.94;49.68
75631;BME280;64215;51.040;6.690;2022-10-16T11:55:15;100952.75;;;23.90;49.35
75631;BME280;64215;51.040;6.690;2022-10-16T11:58:05;100951.63;;;23.91;49.75
75631;BME280;64215;51.040;6.690;2022-10-16T12:00:52;100950.00;;;23.90;49.81
75631;BME280;64215;51.040;6.690;2022-10-16T12:03:22;100945.94;;;23.88;49.97
75631;BME280;64215;51.040;6.690;2022-10-16T12:06:01;100951.94;;;23.90;50.09
75631;BME280;64215;51.040;6.690;2022-10-16T12:08:34;100956.88;;;23.88;50.02
75631;BME280;64215;51.040;6.690;2022-10-16T12:11:09;100957.97;;;23.87;49.96
75631;BME280;64215;51.040;6.690;2022-10-16T12:13:42;100958.53;;;23.83;49.98
75631;BME280;64215;51.040;6.690;2022-10-16T12:18:37;100959.13;;;23.80;50.19
75631;BME280;64215;51.040;6.690;2022-10-16T12:21:03;100956.19;;;23.72;50.28
75631;BME280;64215;51.040;6.690;2022-10-16T12:23:32;100951.66;;;23.62;50.61
75631;BME280;64215;51.040;6.690;2022-10-16T12:25:59;100951.13;;;23.55;51.12
75631;BME280;64215;51.040;6.690;2022-10-16T12:28:31;100942.44;;;23.53;51.03
75631;BME280;64215;51.040;6.690;2022-10-16T12:31:03;100938.91;;;23.47;51.02
75631;BME280;64215;51.040;6.690;2022-10-16T12:33:34;100931.59;;;23.43;51.26
75631;BME280;64215;51.040;6.690;2022-10-16T12:36:03;100932.44;;;23.38;51.37
75631;BME280;64215;51.040;6.690;2022-10-16T12:38:37;100941.78;;;23.32;51.63
75631;BME280;64215;51.040;6.690;2022-10-16T12:46:06;100943.81;;;23.50;50.69
75631;BME280;64215;51.040;6.690;2022-10-16T12:48:46;100940.81;;;23.52;50.54
75631;BME280;64215;51.040;6.690;2022-10-16T12:54:14;100948.91;;;23.57;50.43
75631;BME280;64215;51.040;6.690;2022-10-16T12:59:16;100938.81;;;23.58;50.14
75631;BME280;64215;51.040;6.690;2022-10-16T13:15:58;100942.66;;;23.56;49.93
75631;BME280;64215;51.040;6.690;2022-10-16T13:21:09;100937.72;;;23.59;49.81
75631;BME280;64215;51.040;6.690;2022-10-16T13:29:09;100938.31;;;23.55;49.50
75631;BME280;64215;51.040;6.690;2022-10-16T13:31:38;100942.66;;;23.56;49.82
75631;BME280;64215;51.040;6.690;2022-10-16T13:34:05;100951.94;;;23.55;50.01
75631;BME280;64215;51.040;6.690;2022-10-16T13:36:43;100951.13;;;23.55;50.11
75631;BME280;64215;51.040;6.690;2022-10-16T13:41:40;100933.44;;;23.52;49.68
75631;BME280;64215;51.040;6.690;2022-10-16T13:44:14;100925.25;;;23.52;49.85
75631;BME280;64215;51.040;6.690;2022-10-16T13:46:43;100928.25;;;23.51;49.67
75631;BME280;64215;51.040;6.690;2022-10-16T13:49:16;100939.19;;;23.51;49.49
75631;BME280;64215;51.040;6.690;2022-10-16T13:51:57;100943.81;;;23.50;49.56
75631;BME280;64215;51.040;6.690;2022-10-16T13:54:24;100940.53;;;23.48;49.42
75631;BME280;64215;51.040;6.690;2022-10-16T13:56:49;100945.47;;;23.46;49.73
75631;BME280;64215;51.040;6.690;2022-10-16T13:59:25;100939.72;;;23.48;49.40
75631;BME280;64215;51.040;6.690;2022-10-16T14:01:53;100949.00;;;23.47;49.50
75631;BME280;64215;51.040;6.690;2022-10-16T14:04:21;100941.94;;;23.46;49.49
75631;BME280;64215;51.040;6.690;2022-10-16T14:06:50;100951.75;;;23.47;49.43
75631;BME280;64215;51.040;6.690;2022-10-16T14:09:26;100952.03;;;23.45;49.27
75631;BME280;64215;51.040;6.690;2022-10-16T14:12:02;100949.59;;;23.44;49.40
75631;BME280;64215;51.040;6.690;2022-10-16T14:14:35;100947.69;;;23.44;49.11
75631;BME280;64215;51.040;6.690;2022-10-16T14:17:04;100949.88;;;23.42;49.52
75631;BME280;64215;51.040;6.690;2022-10-16T14:19:30;100946.34;;;23.42;49.26
75631;BME280;64215;51.040;6.690;2022-10-16T14:21:58;100946.59;;;23.40;49.22
75631;BME280;64215;51.040;6.690;2022-10-16T14:26:52;100945.78;;;23.40;49.11
75631;BME280;64215;51.040;6.690;2022-10-16T14:29:20;100936.00;;;23.39;49.50
75631;BME280;64215;51.040;6.690;2022-10-16T14:32:03;100927.50;;;23.40;49.26
75631;BME280;64215;51.040;6.690;2022-10-16T14:34:38;100932.44;;;23.38;49.11
75631;BME280;64215;51.040;6.690;2022-10-16T14:37:13;100933.84;;;23.36;49.25
75631;BME280;64215;51.040;6.690;2022-10-16T14:39:40;100940.09;;;23.36;49.45
75631;BME280;64215;51.040;6.690;2022-10-16T14:42:14;100938.47;;;23.35;49.71
75631;BME280;64215;51.040;6.690;2022-10-16T14:44:42;100946.41;;;23.32;49.37
75631;BME280;64215;51.040;6.690;2022-10-16T14:47:09;100935.78;;;23.30;49.13
75631;BME280;64215;51.040;6.690;2022-10-16T14:49:38;100944.78;;;23.31;49.54
75631;BME280;64215;51.040;6.690;2022-10-16T14:52:09;100951.03;;;23.31;49.72
75631;BME280;64215;51.040;6.690;2022-10-16T14:54:34;100953.81;;;23.26;49.71
75631;BME280;64215;51.040;6.690;2022-10-16T14:57:00;100947.56;;;23.25;49.74
75631;BME280;64215;51.040;6.690;2022-10-16T14:59:32;100945.34;;;23.27;49.98
75631;BME280;64215;51.040;6.690;2022-10-16T15:01:59;100953.00;;;23.25;49.80
75631;BME280;64215;51.040;6.690;2022-10-16T15:04:25;100957.66;;;23.25;49.87
75631;BME280;64215;51.040;6.690;2022-10-16T15:06:51;100964.72;;;23.26;49.83
75631;BME280;64215;51.040;6.690;2022-10-16T15:09:16;100951.38;;;23.24;49.94
75631;BME280;64215;51.040;6.690;2022-10-16T15:11:42;100951.91;;;23.26;50.53
75631;BME280;64215;51.040;6.690;2022-10-16T15:14:11;100950.00;;;23.27;50.67
75631;BME280;64215;51.040;6.690;2022-10-16T15:16:37;100940.44;;;23.30;51.27
75631;BME280;64215;51.040;6.690;2022-10-16T15:19:03;100938.22;;;23.32;51.45
75631;BME280;64215;51.040;6.690;2022-10-16T15:21:31;100943.41;;;23.33;51.35
